createdAt,value
2022-09-01T00:01:42.295Z,77.90
2022-09-01T00:02:42.355Z,78.34
2022-09-01T00:03:42.305Z,78.44
2022-09-01T00:04:42.331Z,79.19
2022-09-01T00:05:42.262Z,79.66
2022-09-01T00:06:42.270Z,79.39
2022-09-01T00:07:42.268Z,80.41
2022-09-01T00:08:42.253Z,80.45
2022-09-01T00:09:42.254Z,80.00
2022-09-01T00:10:42.247Z,80.04
2022-09-01T00:11:42.235Z,80.45
2022-09-01T00:12:42.245Z,80.21
2022-09-01T00:13:42.219Z,79.74
2022-09-01T00:14:42.197Z,80.04
2022-09-01T00:15:42.222Z,79.74
2022-09-01T00:16:42.181Z,79.09
2022-09-01T00:17:42.225Z,77.60
2022-09-01T00:18:42.162Z,78.38
2022-09-01T00:19:42.168Z,78.89
2022-09-01T00:20:42.147Z,78.85
2022-09-01T00:21:42.146Z,78.89
2022-09-01T00:22:42.182Z,79.94
2022-09-01T00:23:42.126Z,80.55
2022-09-01T00:24:42.128Z,79.94
2022-09-01T00:25:42.100Z,80.24
2022-09-01T00:26:42.099Z,79.33
2022-09-01T00:27:42.090Z,78.72
2022-09-01T00:28:42.136Z,78.82
2022-09-01T00:29:44.075Z,78.58
2022-09-01T00:30:42.074Z,78.38
2022-09-01T00:31:42.053Z,77.06
2022-09-01T00:32:42.050Z,75.60
2022-09-01T00:33:42.057Z,76.10
2022-09-01T00:34:42.044Z,76.21
2022-09-01T00:35:42.113Z,76.72
2022-09-01T00:36:42.013Z,76.25
2022-09-01T00:37:41.997Z,76.01
2022-09-01T00:38:41.990Z,75.90
2022-09-01T00:39:42.007Z,75.49
2022-09-01T00:40:42.038Z,76.04
2022-09-01T00:41:41.971Z,76.10
2022-09-01T00:42:41.970Z,75.70
2022-09-01T00:43:41.950Z,75.60
2022-09-01T00:44:41.942Z,76.41
2022-09-01T00:45:41.954Z,76.86
2022-09-01T00:46:49.570Z,77.47
2022-09-01T00:47:42.955Z,77.56
2022-09-01T00:48:42.025Z,77.91
2022-09-01T00:49:41.932Z,77.70
2022-09-01T00:50:41.890Z,78.41
2022-09-01T00:51:41.887Z,78.21
2022-09-01T00:52:41.890Z,78.41
2022-09-01T00:53:41.885Z,79.02
2022-09-01T00:54:41.880Z,79.57
2022-09-01T00:55:41.872Z,79.16
2022-09-01T00:56:41.870Z,79.06
2022-09-01T00:57:41.834Z,79.88
2022-09-01T00:58:41.830Z,79.88
2022-09-01T00:59:41.825Z,80.38
2022-09-01T01:00:42.003Z,81.04
2022-09-01T01:01:41.879Z,81.34
2022-09-01T01:02:41.857Z,82.46
2022-09-01T01:03:41.796Z,82.26
2022-09-01T01:04:41.790Z,82.35
2022-09-01T01:05:41.786Z,83.31
2022-09-01T01:06:41.772Z,84.23
2022-09-01T01:07:41.800Z,83.82
2022-09-01T01:08:41.773Z,84.03
2022-09-01T01:09:41.751Z,84.12
2022-09-01T01:10:41.735Z,83.92
2022-09-01T01:11:41.728Z,84.33
2022-09-01T01:12:41.712Z,84.67
2022-09-01T01:13:41.715Z,84.17
2022-09-01T01:14:41.797Z,84.64
2022-09-01T01:15:41.692Z,84.12
2022-09-01T01:16:41.734Z,84.47
2022-09-01T01:17:41.671Z,84.27
2022-09-01T01:18:41.676Z,84.06
2022-09-01T01:19:41.697Z,84.37
2022-09-01T01:20:41.656Z,84.27
2022-09-01T01:21:41.649Z,84.37
2022-09-01T01:22:41.647Z,84.58
2022-09-01T01:23:41.648Z,84.82
2022-09-01T01:24:41.630Z,84.61
2022-09-01T01:25:41.647Z,84.51
2022-09-01T01:26:41.601Z,84.51
2022-09-01T01:27:42.912Z,84.98
2022-09-01T01:28:41.588Z,85.13
2022-09-01T01:29:41.582Z,85.63
2022-09-01T01:30:41.671Z,85.53
2022-09-01T01:31:41.567Z,85.84
2022-09-01T01:32:41.559Z,86.04
2022-09-01T01:33:42.941Z,86.04
2022-09-01T01:34:41.583Z,86.15
2022-09-01T01:35:41.537Z,86.24
2022-09-01T01:36:41.579Z,85.63
2022-09-01T01:37:41.589Z,86.15
2022-09-01T01:38:41.510Z,85.43
2022-09-01T01:39:41.505Z,86.45
2022-09-01T01:40:41.623Z,86.90
2022-09-01T01:41:41.487Z,86.90
2022-09-01T01:42:41.471Z,86.69
2022-09-01T01:43:41.497Z,87.10
2022-09-01T01:44:41.461Z,87.61
2022-09-01T01:45:41.491Z,87.00
2022-09-01T01:46:41.458Z,86.29
2022-09-01T01:47:41.465Z,86.59
2022-09-01T01:48:41.456Z,85.98
2022-09-01T01:49:41.454Z,85.88
2022-09-01T01:50:41.413Z,85.84
2022-09-01T01:51:41.413Z,86.15
2022-09-01T01:52:41.400Z,86.24
2022-09-01T01:53:41.426Z,86.15
2022-09-01T01:54:41.390Z,86.24
2022-09-01T01:55:41.378Z,85.28
2022-09-01T01:56:41.379Z,85.13
2022-09-01T01:57:41.362Z,85.43
2022-09-01T01:58:41.364Z,85.43
2022-09-01T01:59:41.391Z,85.13
2022-09-01T02:00:41.338Z,85.43
2022-09-01T02:01:41.390Z,85.13
2022-09-01T02:02:41.346Z,85.13
2022-09-01T02:03:41.318Z,84.82
2022-09-01T02:04:41.303Z,84.51
2022-09-01T02:05:41.334Z,85.22
2022-09-01T02:06:41.283Z,86.15
2022-09-01T02:07:41.270Z,86.49
2022-09-01T02:08:41.268Z,86.18
2022-09-01T02:09:41.291Z,86.18
2022-09-01T02:10:41.250Z,85.77
2022-09-01T02:11:41.265Z,85.98
2022-09-01T02:12:41.243Z,85.16
2022-09-01T02:13:41.231Z,85.37
2022-09-01T02:14:41.235Z,84.66
2022-09-01T02:15:41.240Z,84.61
2022-09-01T02:16:41.223Z,84.55
2022-09-01T02:17:41.206Z,84.92
2022-09-01T02:18:41.185Z,84.72
2022-09-01T02:19:41.184Z,84.82
2022-09-01T02:20:41.207Z,84.55
2022-09-01T02:21:41.174Z,85.68
2022-09-01T02:22:41.154Z,85.00
2022-09-01T02:23:41.151Z,86.02
2022-09-01T02:24:41.133Z,86.12
2022-09-01T02:25:58.968Z,86.33
2022-09-01T02:26:42.143Z,85.65
2022-09-01T02:27:41.135Z,85.96
2022-09-01T02:28:41.110Z,85.92
2022-09-01T02:29:43.643Z,84.90
2022-09-01T02:30:41.139Z,85.51
2022-09-01T02:31:41.093Z,85.10
2022-09-01T02:32:41.113Z,85.51
2022-09-01T02:33:41.063Z,86.12
2022-09-01T02:34:41.060Z,86.47
2022-09-01T02:35:41.072Z,87.08
2022-09-01T02:36:41.059Z,87.38
2022-09-01T02:37:41.063Z,88.31
2022-09-01T02:38:41.022Z,88.24
2022-09-01T02:39:41.026Z,88.85
2022-09-01T02:40:41.044Z,88.24
2022-09-01T02:41:41.007Z,88.76
2022-09-01T02:42:40.997Z,88.65
2022-09-01T02:43:41.001Z,89.61
2022-09-01T02:44:41.543Z,88.35
2022-09-01T02:45:41.015Z,88.96
2022-09-01T02:46:40.960Z,88.65
2022-09-01T02:47:40.960Z,88.85
2022-09-01T02:48:40.970Z,89.41
2022-09-01T02:49:40.959Z,89.41
2022-09-01T02:50:40.942Z,89.61
2022-09-01T02:51:40.954Z,89.61
2022-09-01T02:52:40.912Z,89.31
2022-09-01T02:53:40.908Z,89.72
2022-09-01T02:54:40.928Z,89.41
2022-09-01T02:55:40.990Z,90.02
2022-09-01T02:56:40.907Z,89.82
2022-09-01T02:57:40.891Z,91.50
2022-09-01T02:58:40.881Z,90.78
2022-09-01T02:59:43.795Z,91.09
2022-09-01T03:00:40.861Z,91.09
2022-09-01T03:01:40.913Z,91.09
2022-09-01T03:02:40.837Z,91.19
2022-09-01T03:03:40.848Z,91.09
2022-09-01T03:04:40.889Z,91.13
2022-09-01T03:05:40.817Z,91.19
2022-09-01T03:06:40.827Z,91.23
2022-09-01T03:07:40.816Z,90.92
2022-09-01T03:08:40.814Z,90.88
2022-09-01T03:09:40.792Z,91.50
2022-09-01T03:10:40.777Z,91.50
2022-09-01T03:11:40.761Z,90.47
2022-09-01T03:12:40.767Z,91.50
2022-09-01T03:13:40.827Z,90.06
2022-09-01T03:14:40.744Z,89.97
2022-09-01T03:15:40.743Z,90.06
2022-09-01T03:16:40.788Z,90.06
2022-09-01T03:17:40.718Z,90.17
2022-09-01T03:18:40.704Z,90.17
2022-09-01T03:19:40.721Z,89.86
2022-09-01T03:20:40.678Z,89.82
2022-09-01T03:21:40.678Z,89.72
2022-09-01T03:22:40.674Z,89.61
2022-09-01T03:23:40.655Z,89.31
2022-09-01T03:24:40.673Z,89.51
2022-09-01T03:25:40.653Z,88.70
2022-09-01T03:26:40.639Z,88.79
2022-09-01T03:27:40.635Z,88.70
2022-09-01T03:28:40.658Z,89.11
2022-09-01T03:29:40.669Z,89.76
2022-09-01T03:30:40.612Z,89.41
2022-09-01T03:31:40.621Z,89.41
2022-09-01T03:32:40.607Z,88.79
2022-09-01T03:33:40.579Z,88.70
2022-09-01T03:34:40.567Z,88.29
2022-09-01T03:35:40.565Z,88.39
2022-09-01T03:36:40.573Z,88.18
2022-09-01T03:37:40.542Z,88.18
2022-09-01T03:38:40.526Z,88.39
2022-09-01T03:39:40.524Z,88.29
2022-09-01T03:40:40.576Z,88.23
2022-09-01T03:41:40.506Z,88.23
2022-09-01T03:42:40.523Z,88.53
2022-09-01T03:43:46.841Z,88.02
2022-09-01T03:44:41.477Z,88.33
2022-09-01T03:45:40.579Z,88.12
2022-09-01T03:46:40.466Z,88.74
2022-09-01T03:47:40.488Z,88.84
2022-09-01T03:48:40.449Z,88.64
2022-09-01T03:49:40.439Z,88.84
2022-09-01T03:50:40.441Z,89.45
2022-09-01T03:51:40.423Z,89.56
2022-09-01T03:52:40.418Z,89.25
2022-09-01T03:53:40.457Z,89.56
2022-09-01T03:54:40.398Z,89.50
2022-09-01T03:55:40.391Z,90.21
2022-09-01T03:56:40.392Z,90.11
2022-09-01T03:57:40.388Z,90.62
2022-09-01T03:58:40.359Z,89.70
2022-09-01T03:59:40.381Z,90.00
2022-09-01T04:00:40.361Z,89.84
2022-09-01T04:01:40.419Z,89.94
2022-09-01T04:02:40.375Z,90.15
2022-09-01T04:03:40.337Z,90.25
2022-09-01T04:04:40.347Z,89.94
2022-09-01T04:05:40.309Z,89.70
2022-09-01T04:06:40.307Z,89.74
2022-09-01T04:07:40.288Z,89.50
2022-09-01T04:08:40.290Z,89.29
2022-09-01T04:09:40.274Z,89.59
2022-09-01T04:10:40.309Z,89.29
2022-09-01T04:11:45.041Z,89.90
2022-09-01T04:12:41.239Z,90.25
2022-09-01T04:13:40.237Z,89.39
2022-09-01T04:14:40.224Z,89.74
2022-09-01T04:15:40.214Z,89.80
2022-09-01T04:16:40.272Z,90.11
2022-09-01T04:17:40.199Z,89.90
2022-09-01T04:18:40.313Z,90.36
2022-09-01T04:19:40.190Z,90.15
2022-09-01T04:20:40.254Z,90.25
2022-09-01T04:21:40.183Z,90.15
2022-09-01T04:22:40.193Z,89.74
2022-09-01T04:23:40.157Z,89.94
2022-09-01T04:24:44.461Z,89.94
2022-09-01T04:25:40.143Z,91.22
2022-09-01T04:26:40.128Z,90.91
2022-09-01T04:27:40.156Z,91.31
2022-09-01T04:28:40.105Z,91.01
2022-09-01T04:29:40.099Z,91.01
2022-09-01T04:30:40.135Z,90.70
2022-09-01T04:31:40.135Z,90.66
2022-09-01T04:32:40.076Z,91.11
2022-09-01T04:33:40.219Z,91.63
2022-09-01T04:34:40.141Z,90.77
2022-09-01T04:35:40.045Z,90.39
2022-09-01T04:36:40.044Z,90.05
2022-09-01T04:37:40.132Z,89.74
2022-09-01T04:38:40.033Z,89.94
2022-09-01T04:39:40.028Z,90.25
2022-09-01T04:40:40.060Z,89.84
2022-09-01T04:41:40.011Z,90.09
2022-09-01T04:42:40.017Z,90.15
2022-09-01T04:43:40.020Z,89.94
2022-09-01T04:44:39.982Z,89.29
2022-09-01T04:45:40.016Z,89.94
2022-09-01T04:46:39.955Z,89.50
2022-09-01T04:47:39.948Z,89.39
2022-09-01T04:48:39.946Z,89.70
2022-09-01T04:49:39.958Z,89.18
2022-09-01T04:50:39.924Z,88.94
2022-09-01T04:51:39.915Z,88.47
2022-09-01T04:52:39.915Z,88.78
2022-09-01T04:53:39.919Z,88.43
2022-09-01T04:54:39.923Z,88.43
2022-09-01T04:55:39.922Z,88.39
2022-09-01T04:56:39.876Z,87.51
2022-09-01T04:57:39.860Z,88.18
2022-09-01T04:58:39.883Z,88.23
2022-09-01T04:59:39.878Z,87.61
2022-09-01T05:00:39.867Z,87.67
2022-09-01T05:01:39.919Z,87.67
2022-09-01T05:02:39.819Z,87.67
2022-09-01T05:03:39.813Z,87.88
2022-09-01T05:04:39.807Z,88.49
2022-09-01T05:05:39.789Z,87.61
2022-09-01T05:06:39.817Z,88.33
2022-09-01T05:07:39.770Z,88.79
2022-09-01T05:08:39.771Z,88.18
2022-09-01T05:09:39.768Z,87.47
2022-09-01T05:10:39.758Z,87.67
2022-09-01T05:11:39.753Z,87.77
2022-09-01T05:12:39.765Z,87.67
2022-09-01T05:13:39.802Z,87.77
2022-09-01T05:14:39.748Z,87.57
2022-09-01T05:15:39.727Z,87.57
2022-09-01T05:16:39.742Z,87.77
2022-09-01T05:17:39.722Z,87.67
2022-09-01T05:18:39.706Z,87.67
2022-09-01T05:19:39.694Z,87.67
2022-09-01T05:20:39.675Z,87.57
2022-09-01T05:21:39.658Z,87.23
2022-09-01T05:22:39.665Z,87.06
2022-09-01T05:23:39.645Z,87.84
2022-09-01T05:24:42.080Z,87.32
2022-09-01T05:25:39.645Z,87.12
2022-09-01T05:26:39.725Z,85.75
2022-09-01T05:27:39.627Z,86.36
2022-09-01T05:28:39.608Z,86.26
2022-09-01T05:29:39.598Z,86.77
2022-09-01T05:30:39.622Z,86.98
2022-09-01T05:31:39.628Z,86.22
2022-09-01T05:32:39.598Z,85.00
2022-09-01T05:33:39.558Z,84.90
2022-09-01T05:34:39.581Z,85.21
2022-09-01T05:35:39.551Z,84.04
2022-09-01T05:36:39.553Z,83.80
2022-09-01T05:37:39.529Z,82.43
2022-09-01T05:38:39.523Z,81.96
2022-09-01T05:39:39.540Z,84.18
2022-09-01T05:40:39.576Z,84.59
2022-09-01T05:41:39.503Z,85.92
2022-09-01T05:42:39.499Z,85.51
2022-09-01T05:43:39.507Z,85.71
2022-09-01T05:44:39.498Z,86.16
2022-09-01T05:45:56.537Z,86.33
2022-09-01T05:46:40.500Z,85.30
2022-09-01T05:47:39.442Z,85.68
2022-09-01T05:48:39.434Z,84.69
2022-09-01T05:49:39.444Z,85.41
2022-09-01T05:50:39.420Z,85.30
2022-09-01T05:51:50.971Z,84.14
2022-09-01T05:52:40.399Z,83.90
2022-09-01T05:53:39.395Z,83.59
2022-09-01T05:54:39.404Z,82.33
2022-09-01T05:55:39.398Z,82.64
2022-09-01T05:56:43.255Z,82.54
2022-09-01T05:57:39.359Z,82.33
2022-09-01T05:59:40.381Z,81.81
2022-09-01T06:00:39.350Z,77.94
2022-09-01T06:01:39.485Z,74.04
2022-09-01T06:02:39.520Z,72.82
2022-09-01T06:03:39.352Z,70.79
2022-09-01T06:04:39.311Z,69.68
2022-09-01T06:05:39.301Z,68.54
2022-09-01T06:06:54.997Z,68.40
2022-09-01T06:07:40.303Z,69.34
2022-09-01T06:08:39.553Z,69.95
2022-09-01T06:09:39.277Z,71.00
2022-09-01T06:10:39.257Z,69.44
2022-09-01T06:11:39.237Z,70.08
2022-09-01T06:12:39.270Z,70.62
2022-09-01T06:13:39.222Z,69.74
2022-09-01T06:14:39.218Z,68.97
2022-09-01T06:15:39.211Z,66.92
2022-09-01T06:16:39.240Z,67.32
2022-09-01T06:17:39.211Z,65.40
2022-09-01T06:18:39.240Z,66.47
2022-09-01T06:19:39.186Z,67.15
2022-09-01T06:20:39.177Z,65.41
2022-09-01T06:21:39.160Z,61.56
2022-09-01T06:22:39.776Z,61.69
2022-09-01T06:23:39.248Z,62.77
2022-09-01T06:24:39.142Z,59.48
2022-09-01T06:25:39.131Z,59.76
2022-09-01T06:26:39.155Z,61.16
2022-09-01T06:27:39.104Z,59.62
2022-09-01T06:28:39.140Z,61.46
2022-09-01T06:29:39.115Z,61.07
2022-09-01T06:30:39.082Z,61.08
2022-09-01T06:31:39.113Z,62.61
2022-09-01T06:32:39.063Z,61.56
2022-09-01T06:33:39.056Z,64.47
2022-09-01T06:34:39.084Z,64.40
2022-09-01T06:35:39.045Z,64.67
2022-09-01T06:36:39.029Z,64.78
2022-09-01T06:37:39.087Z,64.41
2022-09-01T06:38:39.019Z,62.84
2022-09-01T06:39:39.004Z,64.50
2022-09-01T06:40:39.080Z,65.34
2022-09-01T06:41:39.024Z,65.47
2022-09-01T06:42:38.977Z,65.54
2022-09-01T06:43:38.969Z,66.99
2022-09-01T06:44:41.131Z,67.12
2022-09-01T06:45:38.947Z,68.50
2022-09-01T06:46:39.018Z,69.07
2022-09-01T06:47:39.066Z,67.83
2022-09-01T06:48:39.004Z,65.47
2022-09-01T06:49:38.917Z,63.50
2022-09-01T06:51:39.927Z,57.39
2022-09-01T06:53:39.897Z,57.57
2022-09-01T06:54:38.886Z,58.27
2022-09-01T06:55:38.890Z,55.38
2022-09-01T06:56:42.806Z,57.26
2022-09-01T06:58:39.836Z,58.28
2022-09-01T06:59:38.873Z,60.02
2022-09-01T07:00:38.827Z,60.03
2022-09-01T07:01:39.226Z,57.61
2022-09-01T07:02:38.857Z,57.19
2022-09-01T07:03:38.815Z,58.86
2022-09-01T07:04:38.823Z,59.80
2022-09-01T07:08:05.204Z,56.01
2022-09-01T07:09:49.899Z,56.18
2022-09-01T07:11:19.506Z,55.28
2022-09-01T07:12:39.745Z,57.29
2022-09-01T07:13:38.859Z,57.46
2022-09-01T07:16:30.139Z,57.39
2022-09-01T07:16:41.869Z,58.78
2022-09-01T07:17:39.793Z,59.83
2022-09-01T07:18:38.686Z,57.75
2022-09-01T07:19:54.067Z,59.13
2022-09-01T07:21:36.358Z,56.10
2022-09-01T07:21:42.350Z,56.91
2022-09-01T07:23:03.616Z,56.34
2022-09-01T07:24:07.724Z,57.44
2022-09-01T07:24:39.634Z,57.39
2022-09-01T07:26:01.277Z,56.51
2022-09-01T07:26:46.831Z,56.43
2022-09-01T07:27:41.440Z,57.84
2022-09-01T07:28:38.600Z,57.08
2022-09-01T07:29:38.609Z,55.32
2022-09-01T07:30:38.582Z,54.97
2022-09-01T07:32:44.043Z,57.59
2022-09-01T07:33:44.149Z,56.28
2022-09-01T07:34:39.323Z,53.92
2022-09-01T07:35:39.191Z,54.43
2022-09-01T07:39:55.467Z,57.29
2022-09-01T07:42:31.769Z,54.52
2022-09-01T07:43:39.468Z,56.98
2022-09-01T07:44:38.505Z,53.72
2022-09-01T07:45:47.205Z,56.13
2022-09-01T07:46:39.528Z,55.47
2022-09-01T07:47:54.187Z,54.82
2022-09-01T07:50:11.431Z,54.00
2022-09-01T07:51:34.733Z,55.55
2022-09-01T07:51:39.568Z,56.38
2022-09-01T07:52:38.409Z,53.57
2022-09-01T07:53:38.394Z,54.10
2022-09-01T07:54:38.655Z,53.99
2022-09-01T07:55:38.405Z,50.62
2022-09-01T07:56:40.383Z,51.92
2022-09-01T07:57:38.901Z,54.50
2022-09-01T07:58:38.345Z,52.64
2022-09-01T07:59:38.340Z,52.17
2022-09-01T08:00:38.332Z,53.22
2022-09-01T08:01:38.373Z,51.02
2022-09-01T08:02:38.478Z,54.17
2022-09-01T08:03:38.560Z,52.34
2022-09-01T08:04:38.309Z,52.77
2022-09-01T08:05:38.333Z,54.77
2022-09-01T08:06:38.603Z,54.35
2022-09-01T08:07:51.647Z,55.22
2022-09-01T08:08:39.308Z,53.94
2022-09-01T08:09:43.713Z,53.69
2022-09-01T08:10:39.261Z,54.39
2022-09-01T08:12:02.937Z,52.89
2022-09-01T08:12:39.269Z,51.12
2022-09-01T08:13:41.740Z,50.57
2022-09-01T08:14:38.226Z,55.13
2022-09-01T08:15:41.242Z,54.80
2022-09-01T08:16:40.083Z,53.87
2022-09-01T08:17:54.700Z,54.88
2022-09-01T08:18:54.286Z,55.15
2022-09-01T08:19:39.169Z,55.50
2022-09-01T08:20:38.166Z,52.52
2022-09-01T08:21:38.331Z,54.02
2022-09-01T08:22:38.186Z,52.64
2022-09-01T08:23:38.166Z,55.05
2022-09-01T08:24:38.138Z,55.35
2022-09-01T08:25:38.122Z,55.47
2022-09-01T08:26:38.134Z,56.23
2022-09-01T08:27:38.107Z,54.82
2022-09-01T08:28:38.103Z,56.54
2022-09-01T08:29:38.142Z,55.15
2022-09-01T08:30:38.096Z,54.95
2022-09-01T08:31:38.121Z,55.25
2022-09-01T08:32:38.405Z,53.87
2022-09-01T08:33:38.055Z,51.67
2022-09-01T08:34:38.113Z,52.42
2022-09-01T08:35:38.048Z,53.57
2022-09-01T08:36:38.034Z,56.18
2022-09-01T08:37:38.018Z,55.95
2022-09-01T08:38:38.101Z,56.38
2022-09-01T08:39:38.001Z,57.18
2022-09-01T08:40:38.104Z,56.45
2022-09-01T08:41:38.001Z,56.23
2022-09-01T08:42:38.044Z,54.17
2022-09-01T08:43:38.088Z,55.20
2022-09-01T08:44:38.102Z,54.88
2022-09-01T08:45:37.957Z,56.23
2022-09-01T08:46:38.056Z,57.31
2022-09-01T08:47:55.947Z,56.96
2022-09-01T08:49:46.381Z,54.90
2022-09-01T08:50:38.934Z,54.14
2022-09-01T08:51:37.927Z,51.67
2022-09-01T08:52:37.898Z,50.95
2022-09-01T08:53:37.910Z,50.39
2022-09-01T08:54:37.882Z,54.39
2022-09-01T08:55:37.901Z,54.55
2022-09-01T08:56:37.860Z,54.80
2022-09-01T08:57:37.867Z,53.69
2022-09-01T08:58:37.931Z,54.00
2022-09-01T08:59:38.968Z,54.22
2022-09-01T09:00:37.840Z,55.00
2022-09-01T09:01:38.009Z,53.62
2022-09-01T09:02:37.957Z,52.47
2022-09-01T09:03:41.493Z,52.04
2022-09-01T09:04:37.798Z,50.35
2022-09-01T09:05:37.833Z,51.50
2022-09-01T09:06:37.812Z,53.67
2022-09-01T09:07:37.779Z,51.87
2022-09-01T09:08:37.788Z,51.34
2022-09-01T09:09:37.761Z,52.52
2022-09-01T09:10:37.750Z,53.07
2022-09-01T09:11:38.073Z,54.17
2022-09-01T09:12:48.989Z,53.59
2022-09-01T09:13:38.757Z,53.77
2022-09-01T09:14:37.756Z,52.00
2022-09-01T09:15:37.752Z,52.42
2022-09-01T09:16:37.706Z,50.65
2022-09-01T09:17:37.694Z,52.69
2022-09-01T09:18:39.959Z,54.20
2022-09-01T09:19:37.700Z,54.37
2022-09-01T09:20:38.386Z,54.82
2022-09-01T09:21:37.677Z,53.12
2022-09-01T09:22:37.665Z,52.29
2022-09-01T09:23:37.651Z,52.52
2022-09-01T09:24:39.743Z,52.94
2022-09-01T09:25:37.662Z,54.19
2022-09-01T09:26:44.918Z,52.52
2022-09-01T09:27:38.624Z,53.77
2022-09-01T09:28:37.610Z,53.67
2022-09-01T09:29:37.605Z,54.77
2022-09-01T09:30:38.556Z,54.10
2022-09-01T09:31:37.795Z,54.90
2022-09-01T09:33:08.933Z,52.97
2022-09-01T09:33:51.105Z,54.05
2022-09-01T09:34:38.575Z,53.89
2022-09-01T09:35:37.554Z,52.72
2022-09-01T09:36:37.583Z,54.50
2022-09-01T09:37:37.576Z,53.94
2022-09-01T09:38:37.555Z,54.14
2022-09-01T09:39:37.549Z,54.85
2022-09-01T09:41:06.696Z,54.17
2022-09-01T09:41:38.594Z,52.32
2022-09-01T09:42:37.533Z,51.89
2022-09-01T09:43:37.523Z,50.99
2022-09-01T09:44:37.495Z,51.97
2022-09-01T09:45:37.963Z,51.32
2022-09-01T09:46:37.492Z,49.72
2022-09-01T09:47:44.984Z,50.79
2022-09-01T09:48:39.388Z,49.44
2022-09-01T09:49:44.255Z,49.55
2022-09-01T09:50:38.570Z,52.74
2022-09-01T09:51:37.443Z,50.47
2022-09-01T09:52:38.044Z,48.95
2022-09-01T09:53:37.563Z,51.25
2022-09-01T09:54:37.628Z,52.74
2022-09-01T09:55:37.433Z,52.29
2022-09-01T09:56:37.599Z,49.92
2022-09-01T09:57:37.400Z,51.94
2022-09-01T09:58:37.632Z,50.79
2022-09-01T09:59:57.062Z,51.69
2022-09-01T10:00:40.702Z,52.32
2022-09-01T10:01:38.432Z,52.44
2022-09-01T10:02:38.371Z,52.92
2022-09-01T10:03:37.467Z,53.72
2022-09-01T10:04:37.489Z,52.19
2022-09-01T10:05:37.722Z,52.07
2022-09-01T10:06:37.379Z,51.84
2022-09-01T10:07:37.549Z,52.32
2022-09-01T10:08:38.014Z,52.57
2022-09-01T10:09:37.477Z,50.24
2022-09-01T10:10:37.438Z,49.82
2022-09-01T10:11:41.471Z,50.10
2022-09-01T10:12:37.465Z,49.77
2022-09-01T10:13:37.657Z,49.82
2022-09-01T10:14:52.478Z,50.52
2022-09-01T10:15:38.449Z,50.15
2022-09-01T10:16:37.437Z,46.38
2022-09-01T10:17:37.278Z,48.50
2022-09-01T10:18:37.551Z,49.35
2022-09-01T10:19:37.308Z,48.28
2022-09-01T10:20:37.306Z,49.44
2022-09-01T10:21:37.635Z,47.95
2022-09-01T10:22:37.329Z,49.74
2022-09-01T10:23:37.593Z,48.60
2022-09-01T10:24:38.934Z,48.50
2022-09-01T10:25:38.462Z,49.32
2022-09-01T10:26:37.494Z,49.72
2022-09-01T10:27:37.262Z,49.48
2022-09-01T10:28:37.254Z,48.38
2022-09-01T10:29:47.528Z,48.05
2022-09-01T10:30:38.198Z,47.98
2022-09-01T10:31:37.395Z,46.24
2022-09-01T10:32:42.815Z,47.03
2022-09-01T10:33:38.119Z,46.51
2022-09-01T10:34:37.144Z,46.14
2022-09-01T10:35:39.726Z,46.99
2022-09-01T10:36:37.783Z,46.00
2022-09-01T10:37:37.078Z,46.51
2022-09-01T10:38:37.080Z,46.59
2022-09-01T10:39:42.982Z,46.20
2022-09-01T10:40:43.187Z,46.12
2022-09-01T10:41:39.062Z,45.62
2022-09-01T10:42:37.030Z,46.73
2022-09-01T10:43:38.489Z,45.09
2022-09-01T10:44:37.016Z,47.50
2022-09-01T10:45:38.205Z,46.56
2022-09-01T10:46:39.302Z,46.08
2022-09-01T10:47:37.040Z,47.68
2022-09-01T10:48:48.863Z,45.98
2022-09-01T10:49:37.965Z,46.48
2022-09-01T10:50:36.961Z,45.26
2022-09-01T10:51:40.164Z,45.66
2022-09-01T10:52:37.982Z,46.28
2022-09-01T10:53:36.967Z,45.34
2022-09-01T10:54:38.527Z,46.09
2022-09-01T10:55:36.929Z,43.51
2022-09-01T10:56:37.029Z,43.35
2022-09-01T10:57:42.332Z,43.67
2022-09-01T10:59:43.575Z,45.25
2022-09-01T11:00:37.983Z,45.97
2022-09-01T11:01:47.846Z,46.35
2022-09-01T11:02:46.391Z,46.35
2022-09-01T11:03:42.143Z,46.03
2022-09-01T11:04:37.937Z,46.43
2022-09-01T11:05:36.867Z,46.47
2022-09-01T11:06:36.958Z,48.10
2022-09-01T11:08:00.035Z,46.37
2022-09-01T11:08:37.825Z,46.51
2022-09-01T11:09:36.819Z,46.30
2022-09-01T11:10:36.861Z,45.13
2022-09-01T11:11:36.808Z,44.99
2022-09-01T11:12:36.808Z,43.05
2022-09-01T11:13:36.785Z,43.23
2022-09-01T11:14:36.838Z,41.93
2022-09-01T11:15:36.835Z,43.82
2022-09-01T11:16:52.159Z,41.89
2022-09-01T11:17:37.845Z,42.91
2022-09-01T11:18:36.749Z,42.97
2022-09-01T11:19:36.737Z,39.69
2022-09-01T11:20:36.743Z,42.23
2022-09-01T11:21:38.249Z,42.75
2022-09-01T11:22:38.081Z,43.27
2022-09-01T11:23:36.797Z,44.29
2022-09-01T11:24:37.818Z,42.91
2022-09-01T11:25:40.218Z,43.71
2022-09-01T11:26:36.671Z,42.79
2022-09-01T11:27:36.666Z,42.07
2022-09-01T11:28:36.669Z,41.80
2022-09-01T11:29:36.709Z,42.21
2022-09-01T11:30:36.675Z,44.25
2022-09-01T11:31:36.710Z,42.24
2022-09-01T11:32:36.633Z,43.73
2022-09-01T11:33:36.634Z,43.11
2022-09-01T11:34:36.634Z,42.71
2022-09-01T11:35:36.605Z,41.03
2022-09-01T11:36:36.607Z,41.61
2022-09-01T11:37:36.587Z,41.77
2022-09-01T11:38:36.586Z,41.17
2022-09-01T11:39:36.579Z,41.55
2022-09-01T11:40:36.703Z,41.52
2022-09-01T11:41:36.572Z,42.10
2022-09-01T11:42:36.559Z,41.47
2022-09-01T11:43:36.546Z,41.17
2022-09-01T11:44:36.550Z,42.03
2022-09-01T11:45:36.614Z,41.61
2022-09-01T11:46:36.572Z,40.80
2022-09-01T11:47:36.521Z,41.89
2022-09-01T11:48:36.497Z,41.22
2022-09-01T11:49:36.496Z,41.58
2022-09-01T11:50:36.485Z,40.26
2022-09-01T11:51:36.487Z,41.44
2022-09-01T11:52:36.486Z,40.56
2022-09-01T11:53:36.455Z,40.98
2022-09-01T11:54:36.449Z,40.38
2022-09-01T11:55:36.443Z,41.03
2022-09-01T11:56:36.438Z,42.05
2022-09-01T11:57:36.452Z,42.15
2022-09-01T11:58:36.469Z,42.03
2022-09-01T11:59:36.417Z,41.74
2022-09-01T12:00:36.404Z,42.15
2022-09-01T12:03:02.603Z,42.83
2022-09-01T12:04:02.557Z,41.33
2022-09-01T12:05:02.525Z,41.44
2022-09-01T12:06:02.533Z,41.58
2022-09-01T12:07:02.511Z,39.64
2022-09-01T12:08:02.510Z,39.94
2022-09-01T12:09:02.512Z,40.18
2022-09-01T12:10:02.509Z,40.88
2022-09-01T12:11:02.499Z,40.48
2022-09-01T12:12:02.475Z,40.18
2022-09-01T12:13:02.464Z,40.78
2022-09-01T12:14:02.492Z,39.68
2022-09-01T12:15:06.264Z,40.40
2022-09-01T12:16:19.179Z,40.23
2022-09-01T12:17:03.480Z,40.94
2022-09-01T12:18:02.420Z,40.53
2022-09-01T12:19:02.446Z,42.43
2022-09-01T12:20:02.407Z,41.61
2022-09-01T12:21:02.428Z,41.33
2022-09-01T12:22:02.439Z,41.99
2022-09-01T12:23:02.413Z,40.89
2022-09-01T12:24:02.371Z,42.11
2022-09-01T12:25:02.471Z,40.32
2022-09-01T12:26:02.470Z,40.72
2022-09-01T12:27:02.366Z,39.56
2022-09-01T12:28:02.346Z,39.04
2022-09-01T12:29:02.337Z,39.31
2022-09-01T12:30:02.335Z,38.71
2022-09-01T12:31:02.339Z,39.53
2022-09-01T12:32:03.435Z,37.83
2022-09-01T12:34:03.446Z,39.30
2022-09-01T12:35:09.215Z,40.30
2022-09-01T12:36:03.298Z,39.58
2022-09-01T12:37:02.335Z,39.34
2022-09-01T12:38:03.056Z,38.82
2022-09-01T12:39:02.242Z,38.81
2022-09-01T12:40:02.278Z,38.23
2022-09-01T12:41:02.279Z,40.06
2022-09-01T12:42:02.247Z,40.28
2022-09-01T12:43:02.226Z,39.25
2022-09-01T12:44:02.240Z,39.74
2022-09-01T12:45:02.204Z,39.32
2022-09-01T12:46:02.955Z,39.80
2022-09-01T12:47:02.193Z,40.30
2022-09-01T12:48:02.194Z,39.39
2022-09-01T12:49:02.215Z,39.72
2022-09-01T12:50:03.524Z,40.26
2022-09-01T12:51:02.625Z,41.19
2022-09-01T12:52:02.199Z,41.09
2022-09-01T12:53:02.166Z,40.52
2022-09-01T12:54:04.726Z,40.12
2022-09-01T12:55:02.133Z,40.59
2022-09-01T12:56:02.120Z,40.48
2022-09-01T12:57:02.106Z,40.34
2022-09-01T12:58:02.132Z,38.61
2022-09-01T12:59:02.099Z,39.21
2022-09-01T13:00:02.077Z,39.21
2022-09-01T13:01:02.240Z,39.23
2022-09-01T13:02:02.169Z,38.95
2022-09-01T13:03:02.056Z,38.43
2022-09-01T13:04:02.049Z,39.66
2022-09-01T13:05:02.054Z,40.30
2022-09-01T13:06:02.045Z,39.53
2022-09-01T13:07:02.054Z,40.32
2022-09-01T13:08:02.019Z,39.11
2022-09-01T13:09:02.013Z,39.04
2022-09-01T13:10:02.002Z,39.68
2022-09-01T13:11:02.001Z,40.52
2022-09-01T13:12:06.525Z,40.92
2022-09-01T13:13:03.004Z,41.19
2022-09-01T13:14:01.988Z,40.28